Time;durP1;ratioP1;P1;durP2;ratioP2;P2;SDS_P1;SDS_P2;PMS_P1;PMS_P2;Temp;Humidity;BMP_temperature;BMP_pressure;BME280_temperature;BME280_humidity;BME280_pressure;Samples;Min_cycle;Max_cycle;Signal;HPM_P1;HPM_P2
2023/01/19 00:01:32;;;;;;;41.40;37.30;;;;;;;0.35;98.41;96483.02;108668;1298;22229;-90
2023/01/19 00:04:00;;;;;;;41.10;37.30;;;;;;;0.37;98.61;96480.89;108789;1298;22258;-86
2023/01/19 00:06:28;;;;;;;37.50;33.70;;;;;;;0.40;98.83;96481.69;108775;1298;22170;-89
2023/01/19 00:08:57;;;;;;;36.50;32.40;;;;;;;0.44;98.70;96483.11;108660;1298;22217;-89
2023/01/19 00:11:24;;;;;;;38.20;34.40;;;;;;;0.49;98.78;96479.81;108777;1298;22229;-90
2023/01/19 00:13:52;;;;;;;34.70;31.20;;;;;;;0.56;98.83;96480.81;108936;1298;22276;-94
2023/01/19 00:16:22;;;;;;;38.60;34.70;;;;;;;0.62;98.81;96478.58;108846;1297;22429;-87
2023/01/19 00:18:51;;;;;;;35.30;31.70;;;;;;;0.66;98.80;96476.07;109039;1298;22233;-89
2023/01/19 00:21:20;;;;;;;35.40;32.10;;;;;;;0.65;98.56;96477.34;108889;1298;23417;-90
2023/01/19 00:23:49;;;;;;;35.00;31.60;;;;;;;0.62;98.49;96473.23;108815;1298;22226;-90
2023/01/19 00:26:20;;;;;;;40.80;36.70;;;;;;;0.62;98.54;96476.62;108747;1298;22256;-90
2023/01/19 00:28:49;;;;;;;46.10;41.40;;;;;;;0.66;98.55;96472.77;108760;1287;22198;-89
2023/01/19 00:31:20;;;;;;;39.00;35.20;;;;;;;0.72;98.70;96475.27;108686;1298;22151;-90
2023/01/19 00:33:50;;;;;;;37.60;33.90;;;;;;;0.78;98.89;96477.14;108823;1297;22266;-91
2023/01/19 00:36:18;;;;;;;32.50;29.30;;;;;;;0.83;98.88;96481.91;108814;1298;22232;-91
2023/01/19 00:38:46;;;;;;;31.30;28.00;;;;;;;0.82;98.59;96487.05;108877;1297;22188;-91
2023/01/19 00:41:15;;;;;;;31.70;28.60;;;;;;;0.79;98.53;96487.89;109015;1298;22214;-84
2023/01/19 00:43:43;;;;;;;32.30;29.20;;;;;;;0.81;98.60;96486.57;109227;1298;22206;-87
2023/01/19 00:46:11;;;;;;;32.30;29.20;;;;;;;0.81;98.28;96486.84;109236;1298;22222;-90
2023/01/19 00:48:39;;;;;;;30.60;27.40;;;;;;;0.82;98.46;96483.91;108945;1298;22138;-91
2023/01/19 00:51:08;;;;;;;32.30;29.30;;;;;;;0.81;98.56;96484.18;108818;1298;22846;-91
2023/01/19 00:53:36;;;;;;;30.70;27.80;;;;;;;0.79;98.35;96480.02;108891;1298;22238;-88
2023/01/19 00:56:04;;;;;;;29.90;27.00;;;;;;;0.76;98.50;96473.38;109058;1298;22193;-86
2023/01/19 00:58:37;;;;;;;28.50;25.80;;;;;;;0.78;98.48;96473.86;109193;1297;22214;-87
2023/01/19 01:01:05;;;;;;;31.20;28.20;;;;;;;0.78;98.29;96472.59;108941;1298;21953;-88
2023/01/19 01:03:33;;;;;;;29.30;26.40;;;;;;;0.81;98.23;96469.39;109189;1298;21938;-87
2023/01/19 01:06:07;;;;;;;33.50;30.10;;;;;;;0.81;98.29;96466.21;108980;1297;22339;-87
2023/01/19 01:08:35;;;;;;;28.40;25.70;;;;;;;0.81;98.34;96471.19;108823;1297;22244;-88
2023/01/19 01:11:03;;;;;;;27.80;25.10;;;;;;;0.80;98.48;96471.94;108866;1297;22282;-91
2023/01/19 01:13:31;;;;;;;28.10;25.20;;;;;;;0.80;98.33;96472.31;108860;1297;22971;-89
2023/01/19 01:15:59;;;;;;;28.10;25.50;;;;;;;0.82;98.52;96474.36;108898;1297;22132;-91
2023/01/19 01:18:27;;;;;;;26.60;24.00;;;;;;;0.86;98.44;96477.01;108876;1297;22932;-90
2023/01/19 01:21:04;;;;;;;26.50;23.80;;;;;;;0.88;98.17;96471.42;108913;1297;22355;-90
2023/01/19 01:23:33;;;;;;;27.80;25.00;;;;;;;0.86;97.90;96465.55;108759;1297;22161;-91
2023/01/19 01:26:01;;;;;;;26.60;24.10;;;;;;;0.83;98.08;96466.25;108825;1297;22212;-91
2023/01/19 01:28:30;;;;;;;26.70;24.10;;;;;;;0.80;98.22;96463.88;108849;1297;22142;-90
2023/01/19 01:30:58;;;;;;;28.30;25.60;;;;;;;0.80;98.18;96464.09;108775;1297;22245;-91
2023/01/19 01:33:26;;;;;;;26.30;23.70;;;;;;;0.83;98.30;96469.11;108785;1297;22276;-92
2023/01/19 01:36:10;;;;;;;26.60;24.00;;;;;;;0.91;98.51;96474.29;108803;1297;22276;-90
2023/01/19 01:38:41;;;;;;;27.00;24.50;;;;;;;1.00;98.38;96477.01;108790;1297;22835;-92
2023/01/19 01:41:10;;;;;;;26.10;23.50;;;;;;;1.06;98.32;96473.86;108772;1297;22276;-90
2023/01/19 01:43:44;;;;;;;27.80;25.10;;;;;;;1.07;98.11;96464.14;108781;1297;22233;-93
2023/01/19 01:46:14;;;;;;;25.30;23.00;;;;;;;1.07;98.24;96457.03;108888;1297;22254;-93
2023/01/19 01:49:06;;;;;;;24.40;22.10;;;;;;;1.07;98.05;96458.30;108831;1297;22403;-91
2023/01/19 01:51:41;;;;;;;30.00;26.90;;;;;;;1.02;97.65;96452.44;108877;1297;22215;-93
2023/01/19 01:54:18;;;;;;;;;;;;;;;0.98;97.70;96447.05;109004;1297;22338;-93
2023/01/19 01:56:50;;;;;;;24.40;21.90;;;;;;;0.94;97.54;96448.86;108600;1297;22197;-93
2023/01/19 01:59:24;;;;;;;22.50;20.40;;;;;;;0.94;97.50;96438.58;108889;1297;22119;-90
2023/01/19 02:04:50;;;;;;;25.20;22.80;;;;;;;0.99;97.69;96438.34;108880;1297;22149;-95
2023/01/19 02:13:20;;;;;;;21.90;19.80;;;;;;;1.02;98.05;96449.63;108817;1297;22291;-92
2023/01/19 02:15:51;;;;;;;20.90;18.90;;;;;;;1.06;97.94;96445.36;108899;1297;22159;-93
2023/01/19 02:18:22;;;;;;;20.70;18.50;;;;;;;1.12;97.95;96443.69;109038;1297;22198;-93
2023/01/19 02:21:11;;;;;;;19.70;17.80;;;;;;;1.20;97.87;96434.73;108974;1297;22975;-91
2023/01/19 02:23:44;;;;;;;20.60;18.60;;;;;;;1.21;97.51;96437.63;109073;1297;22278;-94
2023/01/19 02:26:17;;;;;;;22.10;20.00;;;;;;;1.17;97.20;96445.46;108899;1297;22978;-91
2023/01/19 02:29:07;;;;;;;22.70;20.40;;;;;;;1.13;97.02;96450.31;109041;1297;22244;-91
2023/01/19 02:31:38;;;;;;;19.30;17.50;;;;;;;1.08;96.69;96445.77;108975;1297;22303;-93
2023/01/19 02:34:10;;;;;;;19.00;17.30;;;;;;;1.06;96.65;96453.00;109063;1297;23075;-92
2023/01/19 02:36:44;;;;;;;19.90;18.10;;;;;;;1.05;96.70;96450.88;109072;1297;22308;-92
2023/01/19 02:39:14;;;;;;;21.50;19.60;;;;;;;1.05;96.88;96448.81;108845;1285;22280;-91
2023/01/19 02:41:50;;;;;;;26.00;23.60;;;;;;;1.08;97.09;96448.74;108806;1297;23104;-92
2023/01/19 02:44:20;;;;;;;30.20;27.60;;;;;;;1.10;97.41;96448.16;108838;1297;22931;-91
2023/01/19 02:46:48;;;;;;;23.20;21.00;;;;;;;1.12;97.34;96450.21;108844;1297;22261;-89
2023/01/19 02:49:15;;;;;;;20.90;18.90;;;;;;;1.16;97.07;96454.08;108920;1297;22231;-92
2023/01/19 02:51:43;;;;;;;21.20;19.20;;;;;;;1.19;97.08;96455.59;108882;1297;22297;-91
2023/01/19 02:54:11;;;;;;;22.30;20.10;;;;;;;1.23;96.81;96455.62;108870;1297;22919;-90
2023/01/19 02:56:54;;;;;;;19.90;18.20;;;;;;;1.27;97.01;96449.39;108874;1297;22147;-92
2023/01/19 03:00:08;;;;;;;20.90;18.80;;;;;;;1.28;96.97;96448.79;108856;1297;22246;-91
2023/01/19 03:02:56;;;;;;;22.00;19.90;;;;;;;1.25;96.97;96458.20;108068;1303;22286;-88
2023/01/19 03:05:39;;;;;;;21.50;19.50;;;;;;;1.21;96.70;96463.54;108011;1304;23096;-85
2023/01/19 03:08:37;;;;;;;22.20;20.20;;;;;;;1.19;96.88;96465.04;108065;1304;22323;-85
2023/01/19 03:11:08;;;;;;;19.80;17.90;;;;;;;1.18;96.62;96470.73;108042;1304;22332;-87
2023/01/19 03:14:14;;;;;;;21.80;19.80;;;;;;;1.12;96.24;96466.61;108049;1304;22190;-85
2023/01/19 03:16:56;;;;;;;24.30;22.10;;;;;;;1.01;95.93;96465.33;107477;1309;22273;-91
2023/01/19 03:19:28;;;;;;;22.90;20.70;;;;;;;1.01;96.38;96469.79;107525;1286;22205;-89
2023/01/19 03:22:01;;;;;;;46.20;42.50;;;;;;;1.01;96.11;96470.31;107577;1309;22324;-90
2023/01/19 03:24:33;;;;;;;28.00;25.60;;;;;;;0.94;96.03;96467.48;107507;1309;22320;-90
2023/01/19 03:27:11;;;;;;;23.40;21.10;;;;;;;0.84;96.03;96461.64;107534;1309;22957;-89
2023/01/19 03:29:42;;;;;;;23.10;20.90;;;;;;;0.70;95.70;96465.23;107492;1309;22290;-90
2023/01/19 03:32:14;;;;;;;20.40;18.20;;;;;;;0.59;95.64;96465.86;107474;1304;22297;-85
2023/01/19 03:34:48;;;;;;;21.40;19.30;;;;;;;0.56;95.92;96468.40;107489;1309;23156;-85
2023/01/19 03:37:19;;;;;;;20.60;18.30;;;;;;;0.58;96.13;96467.87;107407;1309;22404;-88
2023/01/19 03:39:47;;;;;;;21.40;19.30;;;;;;;0.61;96.17;96464.05;107815;1304;22228;-89
2023/01/19 03:42:16;;;;;;;24.20;21.70;;;;;;;0.62;96.26;96463.35;107923;1304;22293;-89
2023/01/19 03:44:49;;;;;;;25.90;23.40;;;;;;;0.61;95.94;96465.01;108072;1304;23280;-89
2023/01/19 03:47:19;;;;;;;25.40;22.90;;;;;;;0.57;96.05;96461.55;108076;1304;22321;-90
2023/01/19 03:49:49;;;;;;;23.80;21.50;;;;;;;0.54;96.22;96466.19;107936;1304;22327;-90
2023/01/19 03:52:27;;;;;;;24.40;22.20;;;;;;;0.56;96.33;96474.18;108110;1304;22286;-90
2023/01/19 03:54:55;;;;;;;29.50;26.70;;;;;;;0.61;96.30;96482.66;108773;1298;22228;-89
2023/01/19 03:57:23;;;;;;;30.50;27.60;;;;;;;0.64;96.10;96487.90;108765;1298;22209;-90
2023/01/19 03:59:52;;;;;;;24.70;22.50;;;;;;;0.66;96.00;96489.10;108544;1298;22964;-86
2023/01/19 04:02:20;;;;;;;27.40;24.90;;;;;;;0.64;95.90;96476.76;108679;1298;22986;-88
2023/01/19 04:04:48;;;;;;;28.10;25.50;;;;;;;0.62;96.11;96481.23;108768;1298;22900;-89
2023/01/19 04:07:16;;;;;;;25.90;23.60;;;;;;;0.59;96.08;96478.26;108818;1298;22212;-88
2023/01/19 04:09:44;;;;;;;31.30;28.50;;;;;;;0.54;95.89;96481.98;108781;1298;22195;-91
2023/01/19 04:12:12;;;;;;;26.90;24.40;;;;;;;0.53;96.17;96482.10;108748;1298;22234;-90
2023/01/19 04:14:40;;;;;;;39.70;35.70;;;;;;;0.56;96.14;96491.79;108747;1298;22267;-88
2023/01/19 04:17:09;;;;;;;28.90;26.30;;;;;;;0.63;96.40;96497.33;108762;1298;22254;-88
2023/01/19 04:19:37;;;;;;;27.40;24.60;;;;;;;0.69;96.32;96502.25;108762;1298;22231;-89
2023/01/19 04:22:05;;;;;;;36.30;29.90;;;;;;;0.72;96.26;96500.59;108798;1297;22282;-89
2023/01/19 04:24:33;;;;;;;29.00;26.30;;;;;;;0.67;95.97;96489.90;108665;1297;22793;-89
2023/01/19 04:27:00;;;;;;;33.50;29.90;;;;;;;0.59;96.09;96482.02;108784;1297;22247;-86
2023/01/19 04:29:28;;;;;;;65.80;53.60;;;;;;;0.51;95.97;96482.67;108794;1298;22200;-88
2023/01/19 04:31:56;;;;;;;52.30;44.10;;;;;;;0.45;96.22;96488.26;108788;1297;22266;-89
2023/01/19 04:34:24;;;;;;;47.80;41.10;;;;;;;0.43;96.18;96481.63;108765;1298;22279;-88
2023/01/19 04:36:54;;;;;;;51.60;44.20;;;;;;;0.42;96.27;96473.48;108757;1297;22193;-88
2023/01/19 04:39:22;;;;;;;50.90;44.50;;;;;;;0.36;96.36;96471.00;108750;1297;22286;-90
2023/01/19 04:41:51;;;;;;;60.30;50.80;;;;;;;0.26;96.59;96472.13;108810;1297;22789;-85
2023/01/19 04:44:19;;;;;;;51.20;45.70;;;;;;;0.25;96.93;96486.43;108644;1297;22327;-91
2023/01/19 04:46:47;;;;;;;44.10;39.40;;;;;;;0.32;97.11;96500.67;108780;1297;23255;-91
2023/01/19 04:49:15;;;;;;;43.20;38.70;;;;;;;0.40;96.91;96513.76;108652;1297;22275;-87
2023/01/19 04:51:43;;;;;;;45.90;41.00;;;;;;;0.48;96.86;96520.10;108606;1295;22289;-92
2023/01/19 04:54:11;;;;;;;51.40;46.00;;;;;;;0.54;96.72;96519.08;108849;1297;22190;-89
2023/01/19 04:56:42;;;;;;;51.30;46.40;;;;;;;0.55;96.67;96529.41;108831;1297;22182;-91
2023/01/19 04:59:10;;;;;;;60.40;54.30;;;;;;;0.57;96.77;96537.11;108720;1298;22227;-88
2023/01/19 05:01:38;;;;;;;37.60;33.70;;;;;;;0.56;96.62;96540.48;108828;1297;22257;-92
2023/01/19 05:04:07;;;;;;;41.30;37.00;;;;;;;0.55;96.50;96541.13;108835;1297;22711;-90
2023/01/19 05:06:36;;;;;;;42.70;38.10;;;;;;;0.57;96.55;96539.97;108796;1297;23116;-88
2023/01/19 05:09:06;;;;;;;44.20;39.70;;;;;;;0.65;96.81;96544.36;108817;1297;22257;-89
2023/01/19 05:11:35;;;;;;;42.90;38.50;;;;;;;0.74;96.80;96547.89;108738;1297;22241;-89
2023/01/19 05:14:02;;;;;;;36.40;32.80;;;;;;;0.75;96.44;96546.73;108873;1297;22227;-90
2023/01/19 05:16:30;;;;;;;52.60;45.80;;;;;;;0.68;96.69;96542.45;108840;1297;22943;-85
2023/01/19 05:18:59;;;;;;;65.30;47.90;;;;;;;0.56;96.79;96534.77;108874;1297;22230;-89
2023/01/19 05:21:27;;;;;;;49.10;38.30;;;;;;;0.53;96.77;96531.39;108850;1297;22216;-87
2023/01/19 05:23:55;;;;;;;47.70;39.30;;;;;;;0.52;97.00;96530.45;108701;1297;22288;-88
2023/01/19 05:26:23;;;;;;;52.50;40.70;;;;;;;0.50;97.07;96527.25;108856;1297;22167;-89
2023/01/19 05:28:51;;;;;;;60.40;39.00;;;;;;;0.49;96.87;96535.27;108845;1297;22969;-87
2023/01/19 05:31:18;;;;;;;48.00;39.10;;;;;;;0.48;96.79;96538.60;108882;1297;22217;-90
2023/01/19 05:33:47;;;;;;;43.70;35.90;;;;;;;0.48;96.98;96535.11;108947;1289;22201;-88
2023/01/19 05:36:15;;;;;;;43.40;33.50;;;;;;;0.49;96.80;96525.24;108908;1297;22359;-87
2023/01/19 05:38:43;;;;;;;37.70;30.80;;;;;;;0.50;97.02;96512.20;108850;1297;22294;-91
2023/01/19 05:41:11;;;;;;;33.30;29.70;;;;;;;0.47;97.03;96505.27;108845;1297;22262;-89
2023/01/19 05:43:39;;;;;;;38.30;29.40;;;;;;;0.43;97.05;96509.09;108803;1297;22261;-92
2023/01/19 05:46:08;;;;;;;34.30;28.70;;;;;;;0.42;97.01;96516.98;108832;1297;22266;-92
2023/01/19 05:48:36;;;;;;;30.10;25.10;;;;;;;0.46;97.09;96517.77;108677;1292;22219;-89
2023/01/19 05:51:04;;;;;;;31.90;28.60;;;;;;;0.48;97.17;96519.20;108882;1297;22223;-90
2023/01/19 05:53:32;;;;;;;30.70;27.80;;;;;;;0.47;97.09;96514.98;108891;1297;22250;-90
2023/01/19 05:56:07;;;;;;;30.60;27.70;;;;;;;0.45;97.17;96515.13;108887;1297;22142;-90
2023/01/19 05:58:38;;;;;;;30.20;27.10;;;;;;;0.45;97.08;96519.16;108893;1297;22280;-90
2023/01/19 06:01:07;;;;;;;34.40;31.00;;;;;;;0.50;97.26;96520.52;108913;1297;22256;-86
2023/01/19 06:03:36;;;;;;;36.00;32.40;;;;;;;0.55;97.01;96514.89;108889;1297;22274;-87
2023/01/19 06:06:58;;;;;;;37.50;34.10;;;;;;;0.56;97.07;96514.95;109104;1297;22372;-88
2023/01/19 06:09:26;;;;;;;40.50;36.80;;;;;;;0.54;97.14;96525.34;109339;1297;22185;-85
2023/01/19 06:11:56;;;;;;;43.30;39.20;;;;;;;0.54;97.27;96523.38;109246;1297;22218;-89
2023/01/19 06:14:25;;;;;;;39.70;35.90;;;;;;;0.59;97.42;96519.88;108867;1297;22244;-89
2023/01/19 06:16:53;;;;;;;49.30;44.50;;;;;;;0.64;97.01;96529.88;108936;1297;22251;-90
2023/01/19 06:19:21;;;;;;;47.60;43.10;;;;;;;0.64;96.95;96531.48;108891;1297;22212;-89
2023/01/19 06:21:50;;;;;;;60.90;55.20;;;;;;;0.62;96.98;96535.83;108896;1297;22169;-90
2023/01/19 06:24:19;;;;;;;60.90;55.10;;;;;;;0.59;97.12;96535.30;108859;1297;22201;-85
2023/01/19 06:26:47;;;;;;;48.70;44.10;;;;;;;0.55;96.95;96535.10;108871;1297;22242;-88
2023/01/19 06:29:16;;;;;;;50.90;46.10;;;;;;;0.52;96.91;96543.64;108705;1297;22208;-87
2023/01/19 06:31:44;;;;;;;46.30;42.20;;;;;;;0.52;96.92;96551.21;108850;1297;22173;-87
2023/01/19 06:34:12;;;;;;;48.70;44.30;;;;;;;0.54;97.07;96557.36;108838;1297;22239;-88
2023/01/19 06:36:41;;;;;;;63.40;57.10;;;;;;;0.62;97.23;96565.30;108848;1297;22494;-88
2023/01/19 06:39:09;;;;;;;76.70;68.90;;;;;;;0.67;97.34;96567.99;108560;1296;22308;-88
2023/01/19 06:41:38;;;;;;;51.40;46.80;;;;;;;0.71;97.53;96569.85;108792;1297;22309;-88
2023/01/19 06:44:06;;;;;;;54.00;49.00;;;;;;;0.74;97.39;96579.50;108667;1298;22238;-88
2023/01/19 06:46:34;;;;;;;40.70;36.20;;;;;;;0.77;97.56;96594.87;108872;1297;22232;-90
2023/01/19 06:49:02;;;;;;;38.10;34.00;;;;;;;0.82;97.72;96610.72;108813;1297;22972;-83
2023/01/19 06:51:30;;;;;;;37.70;33.80;;;;;;;0.91;97.82;96615.27;108865;1297;22688;-83
2023/01/19 06:53:58;;;;;;;46.10;41.60;;;;;;;1.01;97.53;96624.42;109088;1297;22212;-84
2023/01/19 06:56:26;;;;;;;89.40;80.20;;;;;;;1.05;97.25;96638.84;109019;1297;22412;-84
2023/01/19 06:58:55;;;;;;;124.00;97.40;;;;;;;0.99;96.96;96646.88;109011;1297;22203;-84
2023/01/19 07:01:23;;;;;;;124.90;101.30;;;;;;;0.93;96.81;96648.27;109026;1297;22930;-83
2023/01/19 07:03:51;;;;;;;115.70;91.50;;;;;;;0.85;96.85;96664.08;108985;1297;22945;-84
2023/01/19 07:06:19;;;;;;;87.50;78.40;;;;;;;0.83;97.04;96673.83;108924;1297;22144;-84
2023/01/19 07:08:47;;;;;;;88.80;79.90;;;;;;;0.84;97.08;96680.67;108840;1297;22252;-84
2023/01/19 07:11:15;;;;;;;81.30;73.40;;;;;;;0.83;96.76;96673.67;108843;1297;22391;-82
2023/01/19 07:13:56;;;;;;;94.90;85.50;;;;;;;0.84;96.98;96676.16;108852;1297;22898;-84
2023/01/19 07:16:24;;;;;;;99.40;88.20;;;;;;;0.83;96.99;96670.81;108861;1297;22143;-84
2023/01/19 07:18:53;;;;;;;96.80;84.20;;;;;;;0.82;97.06;96667.37;108863;1297;22210;-83
2023/01/19 07:21:21;;;;;;;78.00;70.60;;;;;;;0.79;97.19;96666.88;108861;1297;22195;-84
2023/01/19 07:23:50;;;;;;;67.70;60.90;;;;;;;0.78;97.46;96669.95;108850;1297;22239;-84
2023/01/19 07:26:20;;;;;;;51.30;46.10;;;;;;;0.80;97.44;96667.30;108686;1297;22207;-85
2023/01/19 07:28:48;;;;;;;39.70;36.00;;;;;;;0.86;97.35;96662.21;108825;1297;23131;-84
2023/01/19 07:31:17;;;;;;;38.80;35.30;;;;;;;0.90;97.27;96654.85;108865;1297;22239;-84
2023/01/19 07:33:45;;;;;;;38.70;35.00;;;;;;;0.95;97.16;96657.70;108704;1297;22990;-83
2023/01/19 07:36:13;;;;;;;34.90;31.60;;;;;;;0.99;97.38;96656.36;108793;1297;22293;-85
2023/01/19 07:38:41;;;;;;;34.80;31.20;;;;;;;0.98;97.31;96646.88;108858;1297;22211;-86
2023/01/19 07:41:09;;;;;;;39.80;36.10;;;;;;;0.99;97.40;96645.97;108859;1297;22230;-84
2023/01/19 07:43:37;;;;;;;34.30;31.20;;;;;;;0.99;97.51;96647.98;108879;1297;22292;-84
2023/01/19 07:46:07;;;;;;;37.60;34.10;;;;;;;1.03;97.54;96633.70;108857;1297;22244;-84
2023/01/19 07:48:35;;;;;;;34.20;30.90;;;;;;;1.10;97.53;96627.33;108803;1297;22168;-83
2023/01/19 07:51:07;;;;;;;31.40;28.20;;;;;;;1.14;97.12;96630.55;108877;1297;22282;-83
2023/01/19 07:53:38;;;;;;;39.40;35.80;;;;;;;1.17;97.45;96627.90;108862;1297;22233;-84
2023/01/19 07:56:07;;;;;;;40.50;36.70;;;;;;;1.22;97.30;96615.36;108844;1297;22988;-83
2023/01/19 07:58:35;;;;;;;41.50;37.70;;;;;;;1.26;97.48;96627.82;108870;1296;22256;-85
2023/01/19 08:01:08;;;;;;;41.00;37.00;;;;;;;1.29;97.79;96644.73;108825;1297;22219;-85
2023/01/19 08:03:38;;;;;;;39.20;35.40;;;;;;;1.31;97.63;96651.90;108856;1297;22239;-85
2023/01/19 08:06:06;;;;;;;37.50;33.90;;;;;;;1.36;97.53;96660.12;108853;1297;22208;-85
2023/01/19 08:08:34;;;;;;;36.10;32.80;;;;;;;1.43;97.69;96672.63;108863;1297;22131;-86
2023/01/19 08:11:02;;;;;;;39.00;35.50;;;;;;;1.50;97.51;96679.62;108859;1297;22276;-86
2023/01/19 08:13:30;;;;;;;38.90;35.20;;;;;;;1.53;97.40;96680.18;108875;1297;22215;-84
2023/01/19 08:15:58;;;;;;;38.20;34.90;;;;;;;1.55;97.59;96683.52;108860;1297;22904;-86
2023/01/19 08:18:26;;;;;;;37.80;34.30;;;;;;;1.57;97.60;96689.63;108866;1297;22202;-85
2023/01/19 08:20:54;;;;;;;35.90;32.70;;;;;;;1.57;97.42;96696.43;108866;1297;22190;-85
2023/01/19 08:23:22;;;;;;;32.80;29.70;;;;;;;1.58;97.23;96696.63;108883;1297;22899;-84
2023/01/19 08:25:50;;;;;;;30.10;27.40;;;;;;;1.61;97.27;96698.90;108879;1297;22337;-84
2023/01/19 08:28:24;;;;;;;32.80;29.70;;;;;;;1.54;97.21;96701.05;108693;1292;22203;-84
2023/01/19 08:30:53;;;;;;;34.60;31.60;;;;;;;1.42;97.17;96703.26;108880;1297;22243;-84
2023/01/19 08:33:23;;;;;;;33.80;30.80;;;;;;;1.38;97.31;96705.23;108667;1297;22249;-84
2023/01/19 08:35:52;;;;;;;37.10;33.80;;;;;;;1.39;97.69;96696.85;108957;1297;22318;-84
2023/01/19 08:38:20;;;;;;;51.30;46.50;;;;;;;1.40;97.70;96696.36;108855;1297;22229;-86
2023/01/19 08:40:50;;;;;;;37.10;33.70;;;;;;;1.41;97.58;96695.19;108853;1297;22209;-85
2023/01/19 08:43:18;;;;;;;39.40;35.70;;;;;;;1.45;97.36;96690.82;108881;1297;22268;-85
2023/01/19 08:45:50;;;;;;;41.70;38.00;;;;;;;1.43;97.18;96686.63;108876;1297;22655;-86
2023/01/19 08:48:23;;;;;;;37.80;34.60;;;;;;;1.32;96.97;96676.58;108829;1297;22266;-85
2023/01/19 08:50:52;;;;;;;46.90;42.80;;;;;;;1.20;97.27;96675.54;109240;1266;23298;-86
2023/01/19 08:53:22;;;;;;;41.50;37.50;;;;;;;1.15;97.23;96673.75;109007;1296;22982;-89
2023/01/19 08:55:58;;;;;;;37.20;34.00;;;;;;;1.10;97.41;96670.25;109009;1296;22363;-89
2023/01/19 08:58:27;;;;;;;35.30;31.40;;;;;;;1.10;97.21;96662.07;108880;1295;22810;-91
2023/01/19 09:00:55;;;;;;;41.20;37.30;;;;;;;1.12;97.17;96651.41;109021;1295;22221;-89
2023/01/19 09:03:23;;;;;;;39.40;35.80;;;;;;;1.14;97.33;96660.21;108848;1295;22261;-90
2023/01/19 09:05:51;;;;;;;39.30;35.80;;;;;;;1.14;97.48;96665.30;109044;1295;23108;-89
2023/01/19 09:08:19;;;;;;;35.10;31.60;;;;;;;1.17;97.58;96667.91;109022;1296;23047;-89
2023/01/19 09:10:50;;;;;;;37.60;34.00;;;;;;;1.12;97.12;96671.20;109040;1295;22233;-89
2023/01/19 09:13:18;;;;;;;47.70;43.10;;;;;;;1.08;97.39;96682.08;109011;1295;22268;-88
2023/01/19 09:15:47;;;;;;;46.80;42.40;;;;;;;1.04;97.50;96687.83;108826;1295;22161;-89
2023/01/19 09:18:21;;;;;;;49.40;44.70;;;;;;;1.03;97.54;96701.14;108999;1295;22378;-88
2023/01/19 09:20:49;;;;;;;39.10;35.30;;;;;;;1.02;97.58;96704.52;108996;1295;22860;-89
2023/01/19 09:23:19;;;;;;;39.30;35.40;;;;;;;1.00;97.61;96708.41;108884;1295;22221;-90
2023/01/19 09:25:47;;;;;;;31.70;28.50;;;;;;;1.02;97.72;96713.17;109000;1296;22288;-90
2023/01/19 09:28:16;;;;;;;33.90;30.60;;;;;;;1.05;97.56;96711.64;108996;1295;22989;-88
2023/01/19 09:30:44;;;;;;;35.00;31.80;;;;;;;1.07;97.54;96706.39;108996;1295;22280;-89
2023/01/19 09:33:16;;;;;;;37.10;33.70;;;;;;;1.13;97.72;96703.19;109041;1295;22310;-89
2023/01/19 09:35:46;;;;;;;35.00;31.70;;;;;;;1.18;97.77;96703.30;109002;1295;22140;-89
2023/01/19 09:38:15;;;;;;;38.20;34.40;;;;;;;1.21;97.70;96700.48;109086;1295;22178;-93
2023/01/19 09:40:50;;;;;;;34.30;31.00;;;;;;;1.21;97.78;96687.42;109033;1295;22241;-89
2023/01/19 09:43:55;;;;;;;33.50;30.20;;;;;;;1.19;98.01;96684.34;108980;1296;22259;-91
2023/01/19 09:46:37;;;;;;;34.90;31.60;;;;;;;1.14;98.03;96683.93;108995;1296;22223;-92
2023/01/19 09:49:38;;;;;;;44.80;38.80;;;;;;;1.11;98.24;96683.14;109071;1296;22248;-89
2023/01/19 09:52:13;;;;;;;43.60;39.30;;;;;;;1.12;98.14;96680.48;108942;1296;23001;-91
2023/01/19 09:54:48;;;;;;;34.60;31.20;;;;;;;1.10;98.22;96689.09;109042;1296;22317;-90
2023/01/19 09:57:23;;;;;;;38.10;34.50;;;;;;;1.10;97.98;96697.80;109286;1296;22230;-89
2023/01/19 09:59:56;;;;;;;52.80;47.40;;;;;;;1.17;98.26;96697.73;109280;1296;22345;-88
2023/01/19 10:02:43;;;;;;;74.40;66.90;;;;;;;1.21;98.25;96689.40;109009;1296;22301;-90
2023/01/19 10:05:35;;;;;;;62.60;56.40;;;;;;;1.31;98.47;96685.09;108956;1296;22890;-89
2023/01/19 10:08:31;;;;;;;64.30;57.90;;;;;;;1.36;98.39;96676.47;108995;1296;22146;-89
2023/01/19 10:11:00;;;;;;;53.80;48.40;;;;;;;1.36;98.12;96675.89;108983;1296;22148;-90
2023/01/19 10:13:38;;;;;;;47.40;42.60;;;;;;;1.34;98.21;96667.55;108729;1296;22256;-85
2023/01/19 10:16:38;;;;;;;43.50;39.30;;;;;;;1.34;98.41;96662.71;108932;1296;22992;-86
2023/01/19 10:19:26;;;;;;;46.50;42.10;;;;;;;1.35;98.38;96658.32;109009;1296;22304;-88
2023/01/19 10:21:57;;;;;;;49.90;45.20;;;;;;;1.30;98.56;96653.87;108811;1285;22196;-86
2023/01/19 10:24:37;;;;;;;46.50;42.10;;;;;;;1.24;98.54;96649.95;108814;1295;22264;-86
2023/01/19 10:27:14;;;;;;;45.90;41.60;;;;;;;1.23;98.61;96651.65;108813;1297;22260;-86
2023/01/19 10:29:43;;;;;;;45.90;41.60;;;;;;;1.27;98.71;96641.98;108886;1297;22183;-87
2023/01/19 10:32:21;;;;;;;45.90;41.70;;;;;;;1.30;98.72;96644.68;108848;1297;22185;-87
2023/01/19 10:34:50;;;;;;;53.00;47.90;;;;;;;1.30;98.75;96648.19;108881;1297;22149;-87
2023/01/19 10:37:37;;;;;;;50.50;46.00;;;;;;;1.26;98.76;96651.98;108878;1297;22273;-88
2023/01/19 10:40:08;;;;;;;49.80;45.20;;;;;;;1.21;98.74;96649.91;108886;1297;22279;-86
2023/01/19 10:42:39;;;;;;;47.30;42.90;;;;;;;1.22;98.91;96655.21;108870;1297;22315;-84
2023/01/19 10:45:16;;;;;;;50.90;46.40;;;;;;;1.23;99.04;96646.61;108889;1297;22266;-87
2023/01/19 10:47:46;;;;;;;51.70;46.90;;;;;;;1.17;98.90;96639.41;109026;1297;22230;-89
2023/01/19 10:50:28;;;;;;;56.80;51.50;;;;;;;1.11;98.88;96650.98;109011;1297;22223;-90
2023/01/19 10:53:04;;;;;;;54.90;49.70;;;;;;;1.06;99.03;96657.36;108828;1289;22389;-90
2023/01/19 10:55:36;;;;;;;51.80;46.90;;;;;;;1.02;99.21;96654.13;108698;1297;22190;-92
2023/01/19 10:58:25;;;;;;;54.90;49.60;;;;;;;1.02;99.37;96651.52;108800;1296;22451;-90
2023/01/19 11:00:53;;;;;;;59.10;53.60;;;;;;;0.98;99.47;96642.73;108994;1280;22190;-88
2023/01/19 11:03:27;;;;;;;60.60;54.50;;;;;;;0.89;99.49;96642.05;108867;1297;22995;-87
2023/01/19 11:06:16;;;;;;;62.80;57.00;;;;;;;0.82;99.48;96648.27;108945;1297;22214;-92
2023/01/19 11:08:46;;;;;;;61.90;55.90;;;;;;;0.76;99.83;96648.59;108945;1297;22258;-90
2023/01/19 11:11:14;;;;;;;59.80;53.70;;;;;;;0.68;99.99;96648.16;108963;1297;22171;-90
2023/01/19 11:13:43;;;;;;;55.70;50.40;;;;;;;0.64;100.00;96642.65;108899;1292;22274;-87
2023/01/19 11:16:26;;;;;;;59.60;54.00;;;;;;;0.60;100.00;96633.90;108971;1297;22297;-85
2023/01/19 11:18:55;;;;;;;58.90;53.20;;;;;;;0.57;100.00;96632.73;109027;1297;22165;-89
2023/01/19 11:21:27;;;;;;;59.40;53.40;;;;;;;0.56;100.00;96633.48;108950;1297;22227;-86
2023/01/19 11:23:59;;;;;;;62.10;56.10;;;;;;;0.56;100.00;96631.31;108788;1292;22304;-87
2023/01/19 11:27:02;;;;;;;61.20;55.50;;;;;;;0.57;100.00;96631.26;108978;1297;22224;-90
2023/01/19 11:29:30;;;;;;;60.90;55.10;;;;;;;0.56;100.00;96627.75;108942;1296;22222;-88
2023/01/19 11:32:10;;;;;;;63.80;57.70;;;;;;;0.55;100.00;96625.05;109052;1297;22326;-89
2023/01/19 11:34:38;;;;;;;60.00;54.20;;;;;;;0.58;100.00;96627.02;108783;1297;165975;-90
2023/01/19 11:37:29;;;;;;;58.60;53.10;;;;;;;0.56;100.00;96626.16;108890;1297;23041;-89
2023/01/19 11:40:01;;;;;;;61.70;56.10;;;;;;;0.53;100.00;96626.43;108894;1297;22218;-85
2023/01/19 11:42:32;;;;;;;64.00;58.10;;;;;;;0.54;100.00;96624.36;108608;1297;22435;-88
2023/01/19 11:45:13;;;;;;;64.30;58.40;;;;;;;0.54;100.00;96623.14;109098;1297;22193;-82
2023/01/19 11:47:51;;;;;;;63.00;56.90;;;;;;;0.53;100.00;96619.81;109324;1297;22215;-84